createdAt,value
2023-12-13T00:00:44.705Z,45.50
2023-12-13T00:01:47.300Z,45.60
2023-12-13T00:02:49.844Z,45.60
2023-12-13T00:03:55.313Z,45.50
2023-12-13T00:04:58.158Z,45.50
2023-12-13T00:06:00.658Z,45.50
2023-12-13T00:07:03.608Z,45.50
2023-12-13T00:08:05.943Z,45.50
2023-12-13T00:09:11.915Z,45.50
2023-12-13T00:10:14.696Z,45.50
2023-12-13T00:11:17.286Z,45.60
2023-12-13T00:12:20.295Z,45.60
2023-12-13T00:13:22.704Z,45.40
2023-12-13T00:14:27.765Z,45.40
2023-12-13T00:15:30.702Z,45.50
2023-12-13T00:16:33.070Z,45.50
2023-12-13T00:17:36.970Z,45.40
2023-12-13T00:18:39.869Z,45.40
2023-12-13T00:19:42.404Z,45.40
2023-12-13T00:20:45.205Z,45.30
2023-12-13T00:21:47.943Z,45.60
2023-12-13T00:22:50.509Z,45.50
2023-12-13T00:23:53.130Z,45.50
2023-12-13T00:24:55.443Z,45.70
2023-12-13T00:25:57.795Z,45.70
2023-12-13T00:27:00.138Z,46.30
2023-12-13T00:28:02.669Z,45.90
2023-12-13T00:29:06.091Z,45.80
2023-12-13T00:30:10.780Z,45.60
2023-12-13T00:31:13.601Z,45.60
2023-12-13T00:32:16.053Z,45.70
2023-12-13T00:33:18.583Z,45.70
2023-12-13T00:34:21.019Z,45.70
2023-12-13T00:35:24.279Z,45.60
2023-12-13T00:36:27.241Z,45.50
2023-12-13T00:37:29.693Z,45.50
2023-12-13T00:38:32.238Z,45.50
2023-12-13T00:39:34.544Z,45.40
2023-12-13T00:40:36.983Z,45.40
2023-12-13T00:41:39.553Z,45.30
2023-12-13T00:42:42.838Z,45.50
2023-12-13T00:43:46.897Z,45.50
2023-12-13T00:44:50.392Z,45.60
2023-12-13T00:45:52.921Z,45.50
2023-12-13T00:46:55.340Z,45.50
2023-12-13T00:47:57.896Z,45.50
2023-12-13T00:49:00.297Z,45.50
2023-12-13T00:50:02.723Z,45.40
2023-12-13T00:51:05.462Z,45.40
2023-12-13T00:52:07.935Z,45.50
2023-12-13T00:53:10.354Z,45.50
2023-12-13T00:54:12.806Z,46.00
2023-12-13T00:55:15.321Z,45.60
2023-12-13T00:56:17.959Z,45.60
2023-12-13T00:57:20.398Z,45.60
2023-12-13T00:58:22.854Z,45.70
2023-12-13T00:59:25.621Z,45.50
2023-12-13T01:00:28.021Z,45.50
2023-12-13T01:01:31.297Z,45.50
2023-12-13T01:02:33.669Z,45.60
2023-12-13T01:03:36.187Z,45.50
2023-12-13T01:04:39.555Z,45.60
2023-12-13T01:05:42.422Z,45.50
2023-12-13T01:06:44.927Z,45.60
2023-12-13T01:07:47.385Z,45.60
2023-12-13T01:08:49.822Z,45.70
2023-12-13T01:09:52.246Z,45.80
2023-12-13T01:10:54.689Z,45.80
2023-12-13T01:11:57.037Z,45.80
2023-12-13T01:12:59.833Z,45.80
2023-12-13T01:14:04.055Z,45.60
2023-12-13T01:15:06.845Z,45.70
2023-12-13T01:16:09.646Z,45.80
2023-12-13T01:17:13.490Z,45.70
2023-12-13T01:18:15.892Z,45.50
2023-12-13T01:19:18.373Z,45.50
2023-12-13T01:20:20.851Z,45.50
2023-12-13T01:21:24.142Z,45.60
2023-12-13T01:22:26.533Z,45.40
2023-12-13T01:23:28.986Z,45.40
2023-12-13T01:24:31.321Z,45.40
2023-12-13T01:25:33.664Z,45.30
2023-12-13T01:26:36.099Z,45.40
2023-12-13T01:27:39.579Z,45.50
2023-12-13T01:28:42.450Z,45.50
2023-12-13T01:29:44.857Z,45.40
2023-12-13T01:30:47.398Z,45.50
2023-12-13T01:31:50.286Z,45.50
2023-12-13T01:32:52.736Z,45.50
2023-12-13T01:33:55.415Z,45.50
2023-12-13T01:34:57.861Z,46.00
2023-12-13T01:36:03.227Z,45.30
2023-12-13T01:37:05.741Z,45.30
2023-12-13T01:38:08.195Z,45.40
2023-12-13T01:39:13.431Z,45.50
2023-12-13T01:40:15.829Z,45.50
2023-12-13T01:41:18.477Z,45.60
2023-12-13T01:42:20.979Z,45.70
2023-12-13T01:43:24.811Z,45.60
2023-12-13T01:44:27.326Z,45.50
2023-12-13T01:45:30.166Z,45.50
2023-12-13T01:46:32.826Z,45.40
2023-12-13T01:47:36.071Z,45.40
2023-12-13T01:48:40.529Z,45.50
2023-12-13T01:49:43.236Z,45.50
2023-12-13T01:50:45.812Z,45.50
2023-12-13T01:51:49.752Z,45.50
2023-12-13T01:52:53.157Z,45.50
2023-12-13T01:53:56.152Z,45.40
2023-12-13T01:54:58.549Z,45.30
2023-12-13T01:56:00.986Z,45.90
2023-12-13T01:57:04.216Z,45.40
2023-12-13T01:58:06.994Z,45.40
2023-12-13T01:59:10.497Z,45.50
2023-12-13T02:00:14.175Z,45.40
2023-12-13T02:01:16.824Z,45.40
2023-12-13T02:02:20.168Z,45.40
2023-12-13T02:03:25.649Z,45.40
2023-12-13T02:04:29.422Z,45.30
2023-12-13T02:05:32.950Z,45.40
2023-12-13T02:06:36.523Z,45.50
2023-12-13T02:07:39.424Z,45.40
2023-12-13T02:08:42.152Z,45.40
2023-12-13T02:09:45.157Z,45.20
2023-12-13T02:10:48.919Z,45.20
2023-12-13T02:11:51.655Z,45.30
2023-12-13T02:12:54.520Z,45.40
2023-12-13T02:13:57.957Z,45.30
2023-12-13T02:15:00.490Z,45.20
2023-12-13T02:16:04.108Z,45.30
2023-12-13T02:17:06.537Z,45.30
2023-12-13T02:18:10.563Z,45.30
2023-12-13T02:19:13.667Z,45.20
2023-12-13T02:20:16.116Z,45.10
2023-12-13T02:21:18.648Z,45.20
2023-12-13T02:22:21.121Z,45.20
2023-12-13T02:23:23.526Z,45.30
2023-12-13T02:24:29.579Z,45.30
2023-12-13T02:25:53.989Z,45.70
2023-12-13T02:26:56.603Z,45.20
2023-12-13T02:27:59.115Z,45.20
2023-12-13T02:29:04.496Z,45.20
2023-12-13T02:30:08.681Z,45.30
2023-12-13T02:31:12.604Z,45.10
2023-12-13T02:32:15.048Z,45.10
2023-12-13T02:33:17.470Z,45.20
2023-12-13T02:34:19.917Z,45.20
2023-12-13T02:35:22.525Z,45.10
2023-12-13T02:36:24.930Z,45.10
2023-12-13T02:37:27.663Z,45.00
2023-12-13T02:38:30.234Z,45.00
2023-12-13T02:39:33.569Z,45.00
2023-12-13T02:40:36.031Z,45.00
2023-12-13T02:41:38.427Z,45.00
2023-12-13T02:42:40.884Z,44.90
2023-12-13T02:43:43.249Z,44.70
2023-12-13T02:44:45.610Z,44.70
2023-12-13T02:45:48.419Z,44.70
2023-12-13T02:46:50.941Z,44.70
2023-12-13T02:47:54.807Z,44.70
2023-12-13T02:49:00.355Z,44.40
2023-12-13T02:50:02.931Z,44.50
2023-12-13T02:51:05.614Z,44.50
2023-12-13T02:52:08.009Z,44.50
2023-12-13T02:53:10.341Z,44.40
2023-12-13T02:54:12.775Z,44.50
2023-12-13T02:55:15.199Z,44.40
2023-12-13T02:56:17.641Z,44.40
2023-12-13T02:57:20.042Z,44.30
2023-12-13T02:58:23.241Z,44.50
2023-12-13T02:59:25.623Z,44.40
2023-12-13T03:00:28.044Z,44.20
2023-12-13T03:01:30.610Z,44.40
2023-12-13T03:02:33.486Z,44.30
2023-12-13T03:03:35.890Z,44.40
2023-12-13T03:04:38.276Z,44.30
2023-12-13T03:05:40.822Z,44.40
2023-12-13T03:06:43.321Z,44.30
2023-12-13T03:07:45.745Z,44.40
2023-12-13T03:08:48.144Z,44.40
2023-12-13T03:09:50.508Z,44.50
2023-12-13T03:10:52.984Z,44.30
2023-12-13T03:11:55.421Z,44.20
2023-12-13T03:12:57.818Z,44.30
2023-12-13T03:14:00.203Z,44.20
2023-12-13T03:15:02.794Z,44.20
2023-12-13T03:16:08.452Z,44.20
2023-12-13T03:17:11.104Z,44.30
2023-12-13T03:18:13.627Z,44.20
2023-12-13T03:19:16.385Z,44.10
2023-12-13T03:20:18.873Z,44.30
2023-12-13T03:21:21.261Z,44.30
2023-12-13T03:22:23.624Z,44.20
2023-12-13T03:23:26.010Z,44.20
2023-12-13T03:24:28.400Z,44.20
2023-12-13T03:25:30.829Z,44.30
2023-12-13T03:26:33.152Z,44.40
2023-12-13T03:27:37.067Z,44.40
2023-12-13T03:28:39.702Z,44.40
2023-12-13T03:29:42.064Z,44.50
2023-12-13T03:30:44.508Z,44.30
2023-12-13T03:31:46.954Z,44.30
2023-12-13T03:32:49.656Z,44.40
2023-12-13T03:33:52.363Z,44.40
2023-12-13T03:34:54.906Z,44.30
2023-12-13T03:35:57.343Z,44.40
2023-12-13T03:36:59.794Z,44.40
2023-12-13T03:38:02.311Z,44.50
2023-12-13T03:39:05.595Z,44.50
2023-12-13T03:40:08.561Z,44.50
2023-12-13T03:41:11.057Z,44.60
2023-12-13T03:42:13.427Z,44.50
2023-12-13T03:43:15.817Z,44.60
2023-12-13T03:44:18.281Z,44.40
2023-12-13T03:45:24.272Z,44.40
2023-12-13T03:46:26.731Z,44.40
2023-12-13T03:47:29.256Z,44.40
2023-12-13T03:48:31.840Z,44.40
2023-12-13T03:49:36.771Z,44.40
2023-12-13T03:50:39.182Z,44.40
2023-12-13T03:51:44.634Z,44.40
2023-12-13T03:52:47.040Z,44.50
2023-12-13T03:53:49.415Z,44.50
2023-12-13T03:54:51.834Z,44.50
2023-12-13T03:55:54.179Z,44.50
2023-12-13T03:56:56.628Z,44.60
2023-12-13T03:57:59.973Z,44.70
2023-12-13T03:59:02.320Z,44.70
2023-12-13T04:00:07.665Z,44.70
2023-12-13T04:01:15.122Z,44.60
2023-12-13T04:02:17.477Z,44.70
2023-12-13T04:03:19.877Z,44.70
2023-12-13T04:04:23.102Z,44.80
2023-12-13T04:05:25.571Z,44.80
2023-12-13T04:06:28.275Z,44.70
2023-12-13T04:07:30.825Z,44.70
2023-12-13T04:08:33.312Z,44.70
2023-12-13T04:09:35.920Z,44.70
2023-12-13T04:10:38.501Z,44.70
2023-12-13T04:11:40.944Z,44.70
2023-12-13T04:12:44.113Z,44.70
2023-12-13T04:13:46.722Z,44.70
2023-12-13T04:14:49.108Z,44.70
2023-12-13T04:15:51.457Z,44.70
2023-12-13T04:16:53.858Z,44.70
2023-12-13T04:17:56.370Z,44.70
2023-12-13T04:18:58.914Z,44.70
2023-12-13T04:20:01.366Z,44.70
2023-12-13T04:21:04.623Z,44.80
2023-12-13T04:22:07.023Z,45.20
2023-12-13T04:23:09.721Z,44.80
2023-12-13T04:24:12.189Z,44.80
2023-12-13T04:25:14.669Z,44.80
2023-12-13T04:26:17.105Z,44.70
2023-12-13T04:27:20.087Z,44.70
2023-12-13T04:28:22.491Z,44.70
2023-12-13T04:29:24.863Z,44.70
2023-12-13T04:30:27.282Z,44.70
2023-12-13T04:31:30.285Z,44.70
2023-12-13T04:32:32.698Z,44.60
2023-12-13T04:33:36.409Z,44.70
2023-12-13T04:34:39.044Z,44.70
2023-12-13T04:35:41.490Z,44.70
2023-12-13T04:36:44.108Z,44.60
2023-12-13T04:37:46.924Z,44.60
2023-12-13T04:38:49.337Z,44.60
2023-12-13T04:39:51.835Z,44.50
2023-12-13T04:40:54.272Z,44.40
2023-12-13T04:41:56.912Z,45.00
2023-12-13T04:43:00.904Z,44.50
2023-12-13T04:44:03.312Z,44.40
2023-12-13T04:45:06.630Z,44.40
2023-12-13T04:46:09.055Z,44.40
2023-12-13T04:47:12.332Z,44.40
2023-12-13T04:48:14.848Z,44.40
2023-12-13T04:49:17.981Z,44.40
2023-12-13T04:50:20.457Z,44.40
2023-12-13T04:51:22.847Z,44.40
2023-12-13T04:52:26.616Z,44.40
2023-12-13T04:53:29.124Z,44.20
2023-12-13T04:54:31.564Z,44.20
2023-12-13T04:55:34.485Z,44.30
2023-12-13T04:56:37.031Z,44.30
2023-12-13T04:57:39.443Z,44.20
2023-12-13T04:58:42.080Z,44.20
2023-12-13T04:59:44.476Z,44.10
2023-12-13T05:00:46.920Z,44.10
2023-12-13T05:01:49.519Z,44.20
2023-12-13T05:02:51.910Z,44.20
2023-12-13T05:03:54.379Z,44.20
2023-12-13T05:04:56.990Z,44.30
2023-12-13T05:05:59.454Z,44.20
2023-12-13T05:07:01.836Z,44.30
2023-12-13T05:08:05.459Z,44.20
2023-12-13T05:09:08.673Z,44.20
2023-12-13T05:10:11.209Z,44.30
2023-12-13T05:11:13.628Z,44.30
2023-12-13T05:12:16.001Z,44.40
2023-12-13T05:13:19.870Z,44.70
2023-12-13T05:14:22.364Z,44.60
2023-12-13T05:15:24.785Z,45.20
2023-12-13T05:16:27.158Z,45.30
2023-12-13T05:17:30.815Z,45.60
2023-12-13T05:18:33.264Z,45.80
2023-12-13T05:19:36.231Z,46.30
2023-12-13T05:20:38.713Z,45.70
2023-12-13T05:21:41.104Z,45.40
2023-12-13T05:22:43.528Z,45.60
2023-12-13T05:23:45.938Z,45.80
2023-12-13T05:24:48.790Z,45.60
2023-12-13T05:25:52.388Z,45.60
2023-12-13T05:26:54.760Z,45.60
2023-12-13T05:27:57.778Z,45.60
2023-12-13T05:29:00.851Z,45.70
2023-12-13T05:30:03.710Z,46.00
2023-12-13T05:31:06.373Z,45.60
2023-12-13T05:32:08.749Z,45.60
2023-12-13T05:33:11.278Z,45.40
2023-12-13T05:34:13.853Z,45.50
2023-12-13T05:35:16.232Z,46.50
2023-12-13T05:36:18.687Z,44.40
2023-12-13T05:37:21.043Z,43.70
2023-12-13T05:38:23.546Z,43.40
2023-12-13T05:39:26.965Z,43.40
2023-12-13T05:40:29.351Z,43.30
2023-12-13T05:41:31.721Z,43.40
2023-12-13T05:42:35.205Z,43.40
2023-12-13T05:43:37.581Z,43.40
2023-12-13T05:44:39.923Z,43.40
2023-12-13T05:45:42.606Z,43.50
2023-12-13T05:46:44.961Z,43.60
2023-12-13T05:47:47.839Z,43.50
2023-12-13T05:48:50.346Z,43.50
2023-12-13T05:49:52.867Z,43.60
2023-12-13T05:50:55.273Z,43.90
2023-12-13T05:51:57.724Z,43.80
2023-12-13T05:53:00.148Z,43.90
2023-12-13T05:54:02.591Z,44.10
2023-12-13T05:55:07.240Z,44.10
2023-12-13T05:56:11.349Z,44.20
2023-12-13T05:57:13.831Z,44.20
2023-12-13T05:58:16.536Z,44.20
2023-12-13T05:59:18.976Z,44.30
2023-12-13T06:00:21.334Z,44.40
2023-12-13T06:01:24.056Z,44.50
2023-12-13T06:02:27.357Z,44.70
2023-12-13T06:03:29.922Z,44.70
2023-12-13T06:04:32.638Z,44.70
2023-12-13T06:05:35.929Z,44.80
2023-12-13T06:06:45.062Z,44.70
2023-12-13T06:07:48.985Z,44.90
2023-12-13T06:08:51.687Z,44.90
2023-12-13T06:09:54.087Z,45.00
2023-12-13T06:10:59.595Z,45.00
2023-12-13T06:12:04.285Z,45.00
2023-12-13T06:13:07.062Z,45.00
2023-12-13T06:14:09.737Z,45.10
2023-12-13T06:15:12.147Z,45.40
2023-12-13T06:16:17.745Z,45.60
2023-12-13T06:17:22.026Z,45.80
2023-12-13T06:18:24.876Z,46.00
2023-12-13T06:19:30.751Z,46.10
2023-12-13T06:20:33.220Z,46.10
2023-12-13T06:21:35.654Z,46.10
2023-12-13T06:22:38.191Z,46.00
2023-12-13T06:23:40.576Z,45.90
2023-12-13T06:24:42.998Z,45.80
2023-12-13T06:25:45.402Z,45.70
2023-12-13T06:26:47.837Z,45.80
2023-12-13T06:27:50.460Z,45.60
2023-12-13T06:28:52.990Z,45.60
2023-12-13T06:29:55.519Z,45.60
2023-12-13T06:30:57.858Z,45.70
2023-12-13T06:32:00.900Z,45.60
2023-12-13T06:33:04.516Z,45.70
2023-12-13T06:34:07.040Z,45.60
2023-12-13T06:35:09.560Z,46.00
2023-12-13T06:36:11.941Z,45.60
2023-12-13T06:37:14.500Z,45.80
2023-12-13T06:38:16.876Z,45.70
2023-12-13T06:39:19.263Z,45.80
2023-12-13T06:40:21.733Z,45.60
2023-12-13T06:41:24.146Z,45.60
2023-12-13T06:42:26.663Z,45.60
2023-12-13T06:43:29.205Z,45.60
2023-12-13T06:44:31.681Z,45.50
2023-12-13T06:45:34.036Z,45.50
2023-12-13T06:46:36.513Z,45.50
2023-12-13T06:47:39.283Z,45.60
2023-12-13T06:48:42.789Z,45.70
2023-12-13T06:49:45.521Z,45.20
2023-12-13T06:50:48.966Z,45.40
2023-12-13T06:51:54.213Z,45.40
2023-12-13T06:52:56.753Z,45.10
2023-12-13T06:54:00.088Z,45.10
2023-12-13T06:55:04.728Z,45.20
2023-12-13T06:56:08.164Z,45.20
2023-12-13T06:57:10.617Z,45.20
2023-12-13T06:58:14.721Z,45.20
2023-12-13T06:59:17.319Z,45.70
2023-12-13T07:00:24.435Z,45.30
2023-12-13T07:01:27.396Z,45.30
2023-12-13T07:02:29.995Z,45.20
2023-12-13T07:03:32.596Z,45.40
2023-12-13T07:04:36.738Z,45.30
2023-12-13T07:05:39.305Z,45.60
2023-12-13T07:06:42.867Z,45.40
2023-12-13T07:07:48.009Z,45.40
2023-12-13T07:08:50.469Z,45.30
2023-12-13T07:09:52.887Z,45.40
2023-12-13T07:10:55.298Z,45.30
2023-12-13T07:11:58.605Z,45.20
2023-12-13T07:13:00.963Z,45.20
2023-12-13T07:14:03.432Z,45.20
2023-12-13T07:15:07.545Z,45.10
2023-12-13T07:16:10.843Z,45.10
2023-12-13T07:17:14.048Z,45.20
2023-12-13T07:18:16.740Z,45.20
2023-12-13T07:19:19.781Z,45.20
2023-12-13T07:20:23.071Z,45.20
2023-12-13T07:21:25.532Z,45.20
2023-12-13T07:22:27.988Z,45.70
2023-12-13T07:23:33.147Z,45.30
2023-12-13T07:24:36.508Z,45.30
2023-12-13T07:25:40.165Z,45.20
2023-12-13T07:26:42.606Z,45.20
2023-12-13T07:27:49.462Z,45.20
2023-12-13T07:28:51.951Z,45.10
2023-12-13T07:29:54.296Z,45.20
2023-12-13T07:31:05.755Z,45.20
2023-12-13T07:32:12.098Z,45.20
2023-12-13T07:33:15.165Z,45.10
2023-12-13T07:34:19.375Z,45.20
2023-12-13T07:35:22.085Z,45.10
2023-12-13T07:36:24.441Z,45.20
2023-12-13T07:37:27.148Z,45.20
2023-12-13T07:38:29.677Z,45.20
2023-12-13T07:39:32.829Z,45.10
2023-12-13T07:40:35.442Z,45.10
2023-12-13T07:41:37.862Z,45.10
2023-12-13T07:42:42.076Z,45.10
2023-12-13T07:43:44.662Z,45.20
2023-12-13T07:44:47.688Z,45.10
2023-12-13T07:45:53.233Z,45.10
2023-12-13T07:46:55.782Z,45.10
2023-12-13T07:48:08.659Z,45.20
2023-12-13T07:49:19.809Z,45.20
2023-12-13T07:50:22.363Z,45.10
2023-12-13T07:51:24.762Z,45.10
2023-12-13T07:52:27.200Z,45.20
2023-12-13T07:53:29.741Z,45.30
2023-12-13T07:54:35.909Z,45.20
2023-12-13T07:55:38.785Z,45.60
2023-12-13T07:56:42.291Z,45.30
2023-12-13T07:57:45.061Z,45.40
2023-12-13T07:58:47.532Z,45.30
2023-12-13T07:59:49.989Z,45.50
2023-12-13T08:00:52.554Z,45.30
2023-12-13T08:01:54.978Z,45.30
2023-12-13T08:02:57.439Z,45.30
2023-12-13T08:03:59.972Z,45.30
2023-12-13T08:05:02.417Z,45.30
2023-12-13T08:06:13.679Z,45.30
2023-12-13T08:07:17.056Z,45.30
2023-12-13T08:08:19.471Z,45.80
2023-12-13T08:09:21.909Z,45.30
2023-12-13T08:10:24.386Z,45.30
2023-12-13T08:11:26.836Z,45.30
2023-12-13T08:12:29.374Z,45.30
2023-12-13T08:13:31.733Z,45.30
2023-12-13T08:14:36.442Z,45.30
2023-12-13T08:15:38.909Z,45.40
2023-12-13T08:16:41.474Z,45.30
2023-12-13T08:17:44.898Z,45.20
2023-12-13T08:18:47.406Z,45.30
2023-12-13T08:19:49.776Z,45.30
2023-12-13T08:20:52.670Z,45.50
2023-12-13T08:21:55.119Z,45.60
2023-12-13T08:22:58.426Z,45.70
2023-12-13T08:24:03.163Z,45.60
2023-12-13T08:25:06.293Z,45.60
2023-12-13T08:26:13.348Z,45.50
2023-12-13T08:27:15.840Z,45.60
2023-12-13T08:28:18.519Z,45.60
2023-12-13T08:29:20.908Z,45.50
2023-12-13T08:30:23.380Z,45.60
2023-12-13T08:31:27.609Z,45.60
2023-12-13T08:32:30.806Z,45.70
2023-12-13T08:33:33.283Z,45.70
2023-12-13T08:34:35.821Z,45.70
2023-12-13T08:35:38.205Z,45.70
2023-12-13T08:36:40.625Z,45.80
2023-12-13T08:37:43.224Z,45.80
2023-12-13T08:38:46.544Z,46.00
2023-12-13T08:39:50.397Z,46.20
2023-12-13T08:40:52.754Z,45.90
2023-12-13T08:41:55.170Z,45.80
2023-12-13T08:42:57.590Z,45.80
2023-12-13T08:43:59.996Z,45.70
2023-12-13T08:45:02.499Z,45.70
2023-12-13T08:46:04.834Z,45.60
2023-12-13T08:47:07.415Z,45.60
2023-12-13T08:48:10.294Z,45.60
2023-12-13T08:49:13.141Z,45.70
2023-12-13T08:50:15.954Z,45.60
2023-12-13T08:51:18.420Z,45.60
2023-12-13T08:52:20.814Z,45.60
2023-12-13T08:53:23.260Z,45.60
2023-12-13T08:54:25.740Z,45.80
2023-12-13T08:55:28.129Z,45.80
2023-12-13T08:56:30.664Z,45.70
2023-12-13T08:57:33.229Z,45.70
2023-12-13T08:58:35.870Z,45.70
2023-12-13T08:59:38.352Z,45.70
2023-12-13T09:00:40.802Z,45.80
2023-12-13T09:01:43.947Z,45.70
2023-12-13T09:02:46.424Z,45.60
2023-12-13T09:03:48.944Z,45.70
2023-12-13T09:04:51.311Z,45.70
2023-12-13T09:05:53.710Z,45.60
2023-12-13T09:06:57.702Z,45.70
2023-12-13T09:08:01.472Z,45.60
2023-12-13T09:09:05.300Z,45.60
2023-12-13T09:10:09.764Z,45.70
2023-12-13T09:11:15.590Z,45.70
2023-12-13T09:12:19.264Z,45.70
2023-12-13T09:13:21.928Z,45.70
2023-12-13T09:14:24.569Z,45.70
2023-12-13T09:15:27.169Z,45.70
2023-12-13T09:16:30.557Z,45.70
2023-12-13T09:17:33.450Z,45.70
2023-12-13T09:18:35.966Z,45.50
2023-12-13T09:19:38.473Z,45.70
2023-12-13T09:20:42.294Z,45.60
2023-12-13T09:21:44.814Z,45.60
2023-12-13T09:22:47.237Z,45.50
2023-12-13T09:23:49.636Z,45.60
2023-12-13T09:24:52.052Z,45.60
2023-12-13T09:25:54.813Z,45.60
2023-12-13T09:26:57.340Z,45.70
2023-12-13T09:28:00.702Z,45.70
2023-12-13T09:29:04.199Z,45.80
2023-12-13T09:30:08.416Z,45.70
2023-12-13T09:31:13.136Z,45.80
2023-12-13T09:32:15.732Z,45.80
2023-12-13T09:33:18.157Z,45.80
2023-12-13T09:34:22.509Z,45.80
2023-12-13T09:35:24.988Z,45.90
2023-12-13T09:36:27.974Z,45.90
2023-12-13T09:37:30.861Z,46.40
2023-12-13T09:38:33.788Z,45.90
2023-12-13T09:39:36.168Z,45.90
2023-12-13T09:40:38.717Z,46.00
2023-12-13T09:41:54.484Z,45.90
2023-12-13T09:42:57.175Z,45.90
2023-12-13T09:43:59.644Z,45.90
2023-12-13T09:45:05.385Z,46.00
2023-12-13T09:46:15.413Z,45.90
2023-12-13T09:47:21.019Z,45.90
2023-12-13T09:48:25.813Z,45.90
2023-12-13T09:49:37.315Z,45.90
2023-12-13T09:50:44.933Z,46.00
2023-12-13T09:51:51.184Z,45.90
2023-12-13T09:52:55.984Z,45.90
2023-12-13T09:53:59.809Z,46.00
2023-12-13T09:55:04.154Z,46.00
2023-12-13T09:56:10.119Z,46.00
2023-12-13T09:57:12.644Z,46.00
2023-12-13T09:58:15.157Z,46.00
2023-12-13T09:59:17.634Z,45.90
2023-12-13T10:00:20.490Z,46.00
2023-12-13T10:01:23.029Z,45.90
2023-12-13T10:02:25.431Z,45.90
2023-12-13T10:03:27.771Z,46.00
2023-12-13T10:04:30.759Z,46.00
2023-12-13T10:05:34.145Z,46.00
2023-12-13T10:06:36.778Z,45.90
2023-12-13T10:07:41.814Z,45.90
2023-12-13T10:08:44.371Z,45.90
2023-12-13T10:09:47.121Z,45.90
2023-12-13T10:10:49.734Z,45.80
2023-12-13T10:11:52.396Z,45.90
2023-12-13T10:12:55.374Z,45.80
2023-12-13T10:13:57.718Z,45.80
2023-12-13T10:15:11.695Z,45.80
2023-12-13T10:16:16.177Z,45.80
2023-12-13T10:17:22.793Z,45.90
2023-12-13T10:18:25.340Z,45.90
2023-12-13T10:19:27.814Z,45.90
2023-12-13T10:20:31.430Z,45.90
2023-12-13T10:21:36.023Z,45.90
2023-12-13T10:22:40.105Z,45.90
2023-12-13T10:23:42.793Z,45.90
2023-12-13T10:24:46.223Z,45.90
2023-12-13T10:25:48.710Z,45.90
2023-12-13T10:26:52.000Z,45.90
2023-12-13T10:27:54.533Z,45.90
2023-12-13T10:28:56.952Z,45.90
2023-12-13T10:30:00.329Z,45.90
2023-12-13T10:31:04.728Z,45.90
2023-12-13T10:32:07.256Z,45.90
2023-12-13T10:33:09.772Z,46.00
2023-12-13T10:34:12.396Z,46.00
2023-12-13T10:35:15.252Z,46.00
2023-12-13T10:36:19.321Z,46.00
2023-12-13T10:37:25.336Z,46.00
2023-12-13T10:38:29.053Z,46.00
2023-12-13T10:39:33.893Z,46.00
2023-12-13T10:40:36.301Z,46.00
2023-12-13T10:41:40.179Z,46.00
2023-12-13T10:42:46.565Z,46.00
2023-12-13T10:43:50.794Z,46.00
2023-12-13T10:44:54.288Z,46.00
2023-12-13T10:46:02.077Z,46.00
2023-12-13T10:47:09.563Z,46.00
2023-12-13T10:48:17.157Z,46.00
2023-12-13T10:49:22.140Z,46.00
2023-12-13T10:50:25.007Z,46.00
2023-12-13T10:51:32.600Z,46.00
2023-12-13T10:52:37.432Z,46.00
2023-12-13T10:53:42.756Z,45.90
2023-12-13T10:54:45.466Z,46.10
2023-12-13T10:55:48.714Z,46.10
2023-12-13T10:56:52.173Z,45.90
2023-12-13T10:57:55.186Z,46.00
2023-12-13T10:58:57.853Z,46.00
2023-12-13T11:00:00.951Z,46.00
2023-12-13T11:01:04.969Z,46.00
2023-12-13T11:02:08.656Z,45.90
2023-12-13T11:03:33.948Z,46.00
2023-12-13T11:04:38.390Z,46.00
2023-12-13T11:05:41.027Z,45.90
2023-12-13T11:06:46.916Z,45.90
2023-12-13T11:07:49.893Z,45.90
2023-12-13T11:08:52.320Z,46.40
2023-12-13T11:09:55.976Z,45.90
2023-12-13T11:11:10.368Z,45.90
2023-12-13T11:12:13.253Z,46.00
2023-12-13T11:13:24.198Z,46.20
2023-12-13T11:14:29.712Z,46.10
2023-12-13T11:15:32.072Z,46.10
2023-12-13T11:16:45.782Z,46.20
2023-12-13T11:17:55.823Z,46.10
2023-12-13T11:18:59.249Z,46.10
2023-12-13T11:20:10.801Z,46.10
2023-12-13T11:21:28.309Z,46.10
2023-12-13T11:22:35.049Z,46.10
2023-12-13T11:23:40.407Z,46.20
2023-12-13T11:24:43.165Z,46.00
2023-12-13T11:25:50.574Z,46.20
2023-12-13T11:26:55.822Z,46.20
2023-12-13T11:27:58.768Z,46.10
2023-12-13T11:29:01.259Z,46.10
2023-12-13T11:30:16.599Z,46.10
2023-12-13T11:31:23.471Z,46.10
2023-12-13T11:32:36.435Z,46.10
2023-12-13T11:33:39.369Z,46.10
2023-12-13T11:34:45.866Z,46.60
2023-12-13T11:35:50.287Z,46.10
2023-12-13T11:36:57.213Z,46.10
2023-12-13T11:38:04.694Z,46.10
2023-12-13T11:39:10.103Z,46.10
2023-12-13T11:40:13.291Z,46.20
2023-12-13T11:41:16.837Z,46.20
2023-12-13T11:42:20.499Z,46.20
2023-12-13T11:43:23.458Z,46.20
2023-12-13T11:44:34.292Z,46.20
2023-12-13T11:45:37.133Z,46.20
2023-12-13T11:46:40.863Z,46.20
2023-12-13T11:47:50.794Z,46.20
2023-12-13T11:48:54.194Z,46.20
2023-12-13T11:49:56.740Z,46.20
2023-12-13T11:50:59.139Z,46.20
2023-12-13T11:52:04.331Z,46.20
2023-12-13T11:53:11.096Z,46.30
2023-12-13T11:54:13.552Z,46.80
2023-12-13T11:55:19.507Z,46.30
2023-12-13T11:56:24.093Z,46.80
2023-12-13T11:57:26.477Z,46.30
2023-12-13T11:58:30.729Z,46.40
2023-12-13T11:59:33.398Z,46.30
2023-12-13T12:00:35.831Z,46.30
2023-12-13T12:01:38.850Z,46.30
2023-12-13T12:02:41.265Z,46.20
2023-12-13T12:03:43.952Z,46.20
2023-12-13T12:04:47.981Z,46.20
2023-12-13T12:05:50.550Z,46.20
2023-12-13T12:06:53.985Z,46.10
2023-12-13T12:08:02.480Z,46.30
2023-12-13T12:09:05.164Z,46.20
2023-12-13T12:10:08.976Z,46.20
2023-12-13T12:11:14.345Z,46.10
2023-12-13T12:12:17.912Z,46.20
2023-12-13T12:13:21.366Z,46.10
2023-12-13T12:14:30.986Z,46.10
2023-12-13T12:15:33.499Z,46.10
2023-12-13T12:16:37.306Z,46.10
2023-12-13T12:17:40.157Z,46.10
2023-12-13T12:18:43.255Z,46.10
2023-12-13T12:19:45.946Z,46.20
2023-12-13T12:20:48.377Z,46.20
2023-12-13T12:21:51.368Z,46.20
2023-12-13T12:22:54.721Z,46.20
2023-12-13T12:24:00.196Z,46.20
2023-12-13T12:25:02.627Z,46.20
2023-12-13T12:26:14.139Z,46.10
2023-12-13T12:27:16.492Z,46.30
2023-12-13T12:28:20.028Z,46.20
2023-12-13T12:29:22.408Z,46.20
2023-12-13T12:30:26.454Z,46.40
2023-12-13T12:31:29.055Z,46.40
2023-12-13T12:32:31.609Z,46.40
2023-12-13T12:33:34.139Z,46.30
2023-12-13T12:34:41.528Z,46.20
2023-12-13T12:35:44.149Z,46.20
2023-12-13T12:36:46.532Z,46.20
2023-12-13T12:37:48.924Z,46.10
2023-12-13T12:38:51.672Z,46.10
2023-12-13T12:39:54.088Z,46.10
2023-12-13T12:40:57.804Z,46.10
2023-12-13T12:42:01.001Z,46.10
2023-12-13T12:43:03.528Z,46.10
2023-12-13T12:44:05.978Z,46.00
2023-12-13T12:45:08.897Z,46.00
2023-12-13T12:46:12.883Z,46.20
2023-12-13T12:47:15.225Z,46.30
2023-12-13T12:48:18.218Z,46.20
2023-12-13T12:49:20.987Z,46.10
2023-12-13T12:50:23.384Z,46.00
2023-12-13T12:51:26.105Z,46.00
2023-12-13T12:52:28.537Z,46.40
2023-12-13T12:53:31.618Z,46.30
2023-12-13T12:54:34.062Z,46.40
2023-12-13T12:55:36.497Z,46.20
2023-12-13T12:56:38.873Z,46.10
2023-12-13T12:57:41.251Z,46.10
2023-12-13T12:58:43.664Z,46.10
2023-12-13T12:59:46.001Z,46.10
2023-12-13T13:00:48.380Z,46.10
2023-12-13T13:01:51.513Z,46.10
2023-12-13T13:02:55.231Z,46.10
2023-12-13T13:03:57.719Z,46.30
2023-12-13T13:05:00.450Z,46.30
2023-12-13T13:06:05.802Z,46.10
2023-12-13T13:07:08.387Z,46.20
2023-12-13T13:08:10.760Z,46.20
2023-12-13T13:09:14.478Z,46.10
2023-12-13T13:10:17.130Z,46.20
2023-12-13T13:11:19.623Z,46.10
2023-12-13T13:12:22.124Z,46.00
2023-12-13T13:13:24.700Z,46.20
2023-12-13T13:14:27.163Z,46.30
2023-12-13T13:15:29.928Z,46.30
2023-12-13T13:16:33.687Z,46.40
2023-12-13T13:17:37.877Z,46.40
2023-12-13T13:18:40.623Z,46.40
2023-12-13T13:19:43.034Z,46.20
2023-12-13T13:20:45.454Z,46.00
2023-12-13T13:21:47.885Z,45.90
2023-12-13T13:22:50.522Z,43.50
2023-12-13T13:23:52.983Z,42.90
2023-12-13T13:24:55.313Z,42.60
2023-12-13T13:25:58.446Z,42.60
2023-12-13T13:27:01.308Z,43.00
2023-12-13T13:28:04.971Z,42.70
2023-12-13T13:29:07.415Z,42.70
2023-12-13T13:30:12.829Z,43.30
2023-12-13T13:31:16.257Z,43.30
2023-12-13T13:32:18.911Z,43.40
2023-12-13T13:33:21.560Z,43.40
2023-12-13T13:34:24.046Z,43.70
2023-12-13T13:35:26.409Z,43.80
2023-12-13T13:36:28.788Z,43.80